Turvo, Brazil
Current Conditions -  °F | °C
As of 4:35 PM on Saturday 25 Oct 2014 (Local Time) from SBCM Reporting Station
Overcast Overcast  
Wind Chill: 75°   Ceiling: 1500
Heat Index: 75°   Visibility: 6mi
Dew Point: 68°   Wind: 7mph
Humidity: 78%   Direction: 120°ESE
Pressure: 29.88"   Gusts: NA
Location:  28.93°S, 49.68°W
Report Text: SBCM 251835Z 12006KT 9999 OVC015 24/20 Q1012
Loading
Personal Weather Stations






























Interactive Weather Map
Tropical Storm Tracking
New forecast layout! Learn more

10-Day Weather Forecast

Advertisements
Track Severe Weather on mobile